Airfield :
LOGIN :

Register | Disclaimer

   EN    FR    IT 

 










Legend :    VFR   Marginal VFR   IFR   Intensive IFR   Very Intensive IFR
Visi :
Ceiling :
>= 8 km
>= 3000ft
5 to 8 km
1000 to 3000 ft
1500m to 5 km
500 to 1000 ft
800 to 1500m
200 to 500 ft
< 800m
< 200 ft
Symbols :   Thunderstorms  Fog  Heavy snow  Heavy precipitations  Wind > 20 kt
SIGMETs :     Misc.  Thunderstorms  Icing  Turbulence  Mountain Waves  Volcanic Ashes






- Airport Elevation : 102 ft
- IATA code : EXT


EGTE - Exeter

CURRENT METAR :
  • 300120Z VRB02KT CAVOK 06/06 Q1013

EXPIRED METARs :
  • 300050Z VRB03KT CAVOK 06/06 Q1013
  • 292350Z VRB02KT CAVOK 07/06 Q1014
  • 292320Z VRB01KT CAVOK 07/06 Q1014
  • 292250Z 04003KT CAVOK 07/06 Q1014

TAF TAF EGTE
Valid from the 30 at 00:00 until the 30 at 03:00 UTC


292254Z 3000/3003 VRB03KT 9999 FEW045



MET'MAP, your aeronautical weather chart ! - Copyright ORBIFLY December 2007 - Disclaimer

ORBIFLY MET'MAP TEAM :

Programming & Development : Alexandra Zaïnal
Concept & original design : Baudouin d'Aumeries
Assistance for programming : Marc-Olivier Méhu
Technical & hardware support : Manuel Goepfert

Contact : metmap@orbifly.com




SOURCES & CREDITS :

   NOAA